Ann Arbor Township, Michigan
Current Conditions -  °F | °C
As of 9:27 AM on Thursday 18 Dec 2014 (Local Time) from KARB Reporting Station
Overcast Overcast  
Wind Chill: 21°   Ceiling: 1400
Heat Index: 30°   Visibility: 10mi
Dew Point: 24°   Wind: 10mph
Humidity: 79%   Direction: 280°W
Pressure: 30.21"   Gusts: NA
Location:  42.3281°N, 83.7037°W
Report Text: KARB 181427Z AUTO 28009KT 10SM OVC014 M01/M04 A3021 RMK AO2 T10111044 $
Loading
Personal Weather Stations






























Interactive Weather Map New forecast layout! Learn more

10-Day Weather Forecast

Advertisements
Track Severe Weather on mobile